Terminal Aerodrome Forecast
Issued by NWS

Home | Current Version | Previous Version | Text Only | Print | Product List | Glossary Off
Versions: 1 2 3 4 5 6 7 8 9 10 11 12 13 14

006
FTUS43 KICT 231720
TAFSLN
TAF
KSLN 231720Z 2318/2418 33015G25KT P6SM BKN050
     FM231900 33017G25KT P6SM VCSH BKN050
     FM240000 34011KT P6SM BKN040
     FM240200 34007KT P6SM SCT120=

USA.gov is the U.S. government's official web portal to all federal, state and local government web resources and services.